ěÝzenÝ letovÚho provozu ╚eskÚ republiky
Letiste: LKKB Aktualizace: 30.05.2020 02:31:18  UTC
 METAR LKKB 30.05. 02:30 ...
METAR LKKB 300230Z 32004KT CAVOK 11/05 Q1022 NOSIG RMK BLU=
 TAF LKKB 29.05. 23:00 ...
TAF LKKB 292300Z 3000/3100 31004KT CAVOK      BECMG 3006/3008 35010KT      TEMPO 3009/3018 BKN035      PROB30 TEMPO 3012/3018 36014G24KT 8000 SHRA SCT025TCU BKN040      BECMG 3020/3022 33006KT=